sensor_id;sensor_type;location;lat;lon;timestamp;P1;durP1;ratioP1;P2;durP2;ratioP2
49061;SDS011;34873;49.142;9.118;2022-08-21T00:01:14;4.25;;;2.10;;
49061;SDS011;34873;49.142;9.118;2022-08-21T00:03:44;3.40;;;2.20;;
49061;SDS011;34873;49.142;9.118;2022-08-21T00:06:10;4.13;;;2.00;;
49061;SDS011;34873;49.142;9.118;2022-08-21T00:08:38;4.13;;;2.28;;
49061;SDS011;34873;49.142;9.118;2022-08-21T00:11:03;2.72;;;1.90;;
49061;SDS011;34873;49.142;9.118;2022-08-21T00:13:34;5.10;;;2.50;;
49061;SDS011;34873;49.142;9.118;2022-08-21T00:16:04;3.10;;;1.98;;
49061;SDS011;34873;49.142;9.118;2022-08-21T00:18:32;3.20;;;1.98;;
49061;SDS011;34873;49.142;9.118;2022-08-21T00:20:58;2.80;;;1.85;;
49061;SDS011;34873;49.142;9.118;2022-08-21T00:23:28;4.22;;;1.90;;
49061;SDS011;34873;49.142;9.118;2022-08-21T00:25:58;3.45;;;2.00;;
49061;SDS011;34873;49.142;9.118;2022-08-21T00:28:26;6.75;;;2.05;;
49061;SDS011;34873;49.142;9.118;2022-08-21T00:30:51;3.75;;;2.22;;
49061;SDS011;34873;49.142;9.118;2022-08-21T00:33:21;2.83;;;1.77;;
49061;SDS011;34873;49.142;9.118;2022-08-21T00:35:48;3.40;;;1.90;;
49061;SDS011;34873;49.142;9.118;2022-08-21T00:38:16;3.38;;;2.25;;
49061;SDS011;34873;49.142;9.118;2022-08-21T00:40:52;3.15;;;1.88;;
49061;SDS011;34873;49.142;9.118;2022-08-21T00:43:23;2.63;;;2.08;;
49061;SDS011;34873;49.142;9.118;2022-08-21T00:45:53;2.60;;;1.90;;
49061;SDS011;34873;49.142;9.118;2022-08-21T00:48:20;5.35;;;2.25;;
49061;SDS011;34873;49.142;9.118;2022-08-21T00:50:52;4.65;;;2.20;;
49061;SDS011;34873;49.142;9.118;2022-08-21T00:53:41;2.67;;;2.20;;
49061;SDS011;34873;49.142;9.118;2022-08-21T00:56:08;3.08;;;2.13;;
49061;SDS011;34873;49.142;9.118;2022-08-21T00:58:37;3.00;;;2.00;;
49061;SDS011;34873;49.142;9.118;2022-08-21T01:01:07;2.20;;;1.98;;
49061;SDS011;34873;49.142;9.118;2022-08-21T01:03:36;2.97;;;2.22;;
49061;SDS011;34873;49.142;9.118;2022-08-21T01:06:02;5.78;;;2.22;;
49061;SDS011;34873;49.142;9.118;2022-08-21T01:08:31;3.28;;;2.00;;
49061;SDS011;34873;49.142;9.118;2022-08-21T01:10:59;2.22;;;1.77;;
49061;SDS011;34873;49.142;9.118;2022-08-21T01:13:29;5.68;;;1.95;;
49061;SDS011;34873;49.142;9.118;2022-08-21T01:15:58;3.47;;;2.08;;
49061;SDS011;34873;49.142;9.118;2022-08-21T01:18:27;2.85;;;1.80;;
49061;SDS011;34873;49.142;9.118;2022-08-21T01:21:13;3.83;;;2.20;;
49061;SDS011;34873;49.142;9.118;2022-08-21T01:23:47;3.85;;;2.42;;
49061;SDS011;34873;49.142;9.118;2022-08-21T01:26:17;3.90;;;2.10;;
49061;SDS011;34873;49.142;9.118;2022-08-21T01:28:51;3.28;;;2.10;;
49061;SDS011;34873;49.142;9.118;2022-08-21T01:31:22;4.78;;;2.45;;
49061;SDS011;34873;49.142;9.118;2022-08-21T01:33:50;3.58;;;1.92;;
49061;SDS011;34873;49.142;9.118;2022-08-21T01:36:16;4.80;;;2.33;;
49061;SDS011;34873;49.142;9.118;2022-08-21T01:38:44;4.40;;;2.03;;
49061;SDS011;34873;49.142;9.118;2022-08-21T01:41:09;2.58;;;2.10;;
49061;SDS011;34873;49.142;9.118;2022-08-21T01:43:35;2.42;;;1.95;;
49061;SDS011;34873;49.142;9.118;2022-08-21T01:46:05;4.32;;;1.70;;
49061;SDS011;34873;49.142;9.118;2022-08-21T01:48:31;3.60;;;1.92;;
49061;SDS011;34873;49.142;9.118;2022-08-21T01:50:59;2.78;;;1.90;;
49061;SDS011;34873;49.142;9.118;2022-08-21T01:53:27;4.60;;;2.13;;
49061;SDS011;34873;49.142;9.118;2022-08-21T01:55:52;5.45;;;2.28;;
49061;SDS011;34873;49.142;9.118;2022-08-21T01:58:18;3.42;;;2.20;;
49061;SDS011;34873;49.142;9.118;2022-08-21T02:00:43;4.13;;;2.60;;
49061;SDS011;34873;49.142;9.118;2022-08-21T02:03:11;4.50;;;2.40;;
49061;SDS011;34873;49.142;9.118;2022-08-21T02:05:42;3.70;;;2.13;;
49061;SDS011;34873;49.142;9.118;2022-08-21T02:08:10;3.78;;;2.13;;
49061;SDS011;34873;49.142;9.118;2022-08-21T02:10:38;4.45;;;2.25;;
49061;SDS011;34873;49.142;9.118;2022-08-21T02:13:04;2.35;;;1.63;;
49061;SDS011;34873;49.142;9.118;2022-08-21T02:15:30;3.85;;;1.83;;
49061;SDS011;34873;49.142;9.118;2022-08-21T02:18:01;3.15;;;2.25;;
49061;SDS011;34873;49.142;9.118;2022-08-21T02:20:30;7.13;;;2.60;;
49061;SDS011;34873;49.142;9.118;2022-08-21T02:23:00;3.25;;;2.00;;
49061;SDS011;34873;49.142;9.118;2022-08-21T02:25:26;3.40;;;1.90;;
49061;SDS011;34873;49.142;9.118;2022-08-21T02:27:52;2.45;;;1.77;;
49061;SDS011;34873;49.142;9.118;2022-08-21T02:30:26;6.22;;;2.10;;
49061;SDS011;34873;49.142;9.118;2022-08-21T02:32:59;3.58;;;2.33;;
49061;SDS011;34873;49.142;9.118;2022-08-21T02:35:29;2.20;;;1.90;;
49061;SDS011;34873;49.142;9.118;2022-08-21T02:38:00;4.05;;;1.75;;
49061;SDS011;34873;49.142;9.118;2022-08-21T02:40:29;2.97;;;1.95;;
49061;SDS011;34873;49.142;9.118;2022-08-21T02:42:57;3.40;;;1.98;;
49061;SDS011;34873;49.142;9.118;2022-08-21T02:45:23;3.60;;;1.98;;
49061;SDS011;34873;49.142;9.118;2022-08-21T02:47:52;4.93;;;2.08;;
49061;SDS011;34873;49.142;9.118;2022-08-21T02:50:23;5.18;;;1.92;;
49061;SDS011;34873;49.142;9.118;2022-08-21T02:52:55;3.53;;;2.20;;
49061;SDS011;34873;49.142;9.118;2022-08-21T02:55:25;6.25;;;2.28;;
49061;SDS011;34873;49.142;9.118;2022-08-21T02:57:52;4.40;;;3.30;;
49061;SDS011;34873;49.142;9.118;2022-08-21T03:00:18;5.47;;;2.80;;
49061;SDS011;34873;49.142;9.118;2022-08-21T03:02:45;5.57;;;2.55;;
49061;SDS011;34873;49.142;9.118;2022-08-21T03:05:12;3.60;;;2.40;;
49061;SDS011;34873;49.142;9.118;2022-08-21T03:07:41;5.43;;;2.42;;
49061;SDS011;34873;49.142;9.118;2022-08-21T03:10:07;7.50;;;2.70;;
49061;SDS011;34873;49.142;9.118;2022-08-21T03:12:35;5.63;;;2.45;;
49061;SDS011;34873;49.142;9.118;2022-08-21T03:15:04;4.35;;;2.28;;
49061;SDS011;34873;49.142;9.118;2022-08-21T03:17:31;4.70;;;2.05;;
49061;SDS011;34873;49.142;9.118;2022-08-21T03:19:57;4.43;;;2.28;;
49061;SDS011;34873;49.142;9.118;2022-08-21T03:22:23;3.60;;;1.88;;
49061;SDS011;34873;49.142;9.118;2022-08-21T03:24:49;4.20;;;2.15;;
49061;SDS011;34873;49.142;9.118;2022-08-21T03:27:19;6.32;;;2.20;;
49061;SDS011;34873;49.142;9.118;2022-08-21T03:29:52;3.03;;;2.35;;
49061;SDS011;34873;49.142;9.118;2022-08-21T03:32:20;6.35;;;2.58;;
49061;SDS011;34873;49.142;9.118;2022-08-21T03:34:49;3.90;;;2.00;;
49061;SDS011;34873;49.142;9.118;2022-08-21T03:37:14;3.00;;;2.10;;
49061;SDS011;34873;49.142;9.118;2022-08-21T03:39:40;3.53;;;1.85;;
49061;SDS011;34873;49.142;9.118;2022-08-21T03:42:14;4.97;;;2.58;;
49061;SDS011;34873;49.142;9.118;2022-08-21T03:44:40;6.28;;;2.63;;
49061;SDS011;34873;49.142;9.118;2022-08-21T03:47:08;4.53;;;2.10;;
49061;SDS011;34873;49.142;9.118;2022-08-21T03:49:36;4.32;;;2.40;;
49061;SDS011;34873;49.142;9.118;2022-08-21T03:52:04;3.40;;;2.33;;
49061;SDS011;34873;49.142;9.118;2022-08-21T03:54:29;5.63;;;2.90;;
49061;SDS011;34873;49.142;9.118;2022-08-21T03:57:00;3.55;;;2.25;;
49061;SDS011;34873;49.142;9.118;2022-08-21T03:59:25;4.15;;;2.53;;
49061;SDS011;34873;49.142;9.118;2022-08-21T04:02:03;3.88;;;2.30;;
49061;SDS011;34873;49.142;9.118;2022-08-21T04:04:33;3.85;;;2.58;;
49061;SDS011;34873;49.142;9.118;2022-08-21T04:06:59;4.80;;;2.47;;
49061;SDS011;34873;49.142;9.118;2022-08-21T04:09:24;5.57;;;3.15;;
49061;SDS011;34873;49.142;9.118;2022-08-21T04:11:53;4.43;;;2.28;;
49061;SDS011;34873;49.142;9.118;2022-08-21T04:14:23;3.03;;;2.13;;
49061;SDS011;34873;49.142;9.118;2022-08-21T04:16:53;6.10;;;2.70;;
49061;SDS011;34873;49.142;9.118;2022-08-21T04:19:19;5.18;;;2.70;;
49061;SDS011;34873;49.142;9.118;2022-08-21T04:21:46;4.18;;;2.72;;
49061;SDS011;34873;49.142;9.118;2022-08-21T04:24:16;4.00;;;2.78;;
49061;SDS011;34873;49.142;9.118;2022-08-21T04:26:44;3.63;;;2.92;;
49061;SDS011;34873;49.142;9.118;2022-08-21T04:29:10;3.72;;;2.50;;
49061;SDS011;34873;49.142;9.118;2022-08-21T04:31:40;6.63;;;3.08;;
49061;SDS011;34873;49.142;9.118;2022-08-21T04:34:12;5.13;;;2.80;;
49061;SDS011;34873;49.142;9.118;2022-08-21T04:36:40;5.82;;;2.80;;
49061;SDS011;34873;49.142;9.118;2022-08-21T04:39:11;5.03;;;2.58;;
49061;SDS011;34873;49.142;9.118;2022-08-21T04:41:39;5.95;;;2.60;;
49061;SDS011;34873;49.142;9.118;2022-08-21T04:44:06;9.95;;;3.30;;
49061;SDS011;34873;49.142;9.118;2022-08-21T04:46:36;3.95;;;3.40;;
49061;SDS011;34873;49.142;9.118;2022-08-21T04:49:02;5.05;;;2.90;;
49061;SDS011;34873;49.142;9.118;2022-08-21T04:51:34;5.47;;;2.67;;
49061;SDS011;34873;49.142;9.118;2022-08-21T04:54:14;5.63;;;2.80;;
49061;SDS011;34873;49.142;9.118;2022-08-21T04:59:15;4.90;;;3.08;;
49061;SDS011;34873;49.142;9.118;2022-08-21T05:01:48;10.75;;;2.92;;
49061;SDS011;34873;49.142;9.118;2022-08-21T05:04:18;7.97;;;2.88;;
49061;SDS011;34873;49.142;9.118;2022-08-21T05:06:51;5.78;;;3.03;;
49061;SDS011;34873;49.142;9.118;2022-08-21T05:09:22;4.13;;;2.95;;
49061;SDS011;34873;49.142;9.118;2022-08-21T05:11:50;3.85;;;2.25;;
49061;SDS011;34873;49.142;9.118;2022-08-21T05:14:20;5.53;;;2.85;;
49061;SDS011;34873;49.142;9.118;2022-08-21T05:16:52;6.78;;;2.45;;
49061;SDS011;34873;49.142;9.118;2022-08-21T05:19:20;5.30;;;3.00;;
49061;SDS011;34873;49.142;9.118;2022-08-21T05:21:46;7.13;;;2.40;;
49061;SDS011;34873;49.142;9.118;2022-08-21T05:24:17;4.57;;;3.22;;
49061;SDS011;34873;49.142;9.118;2022-08-21T05:26:45;5.72;;;2.67;;
49061;SDS011;34873;49.142;9.118;2022-08-21T05:29:16;6.65;;;2.70;;
49061;SDS011;34873;49.142;9.118;2022-08-21T05:31:42;5.00;;;2.85;;
49061;SDS011;34873;49.142;9.118;2022-08-21T05:34:13;5.00;;;2.53;;
49061;SDS011;34873;49.142;9.118;2022-08-21T05:36:39;5.78;;;2.80;;
49061;SDS011;34873;49.142;9.118;2022-08-21T05:39:07;5.45;;;2.90;;
49061;SDS011;34873;49.142;9.118;2022-08-21T05:41:35;5.22;;;2.85;;
49061;SDS011;34873;49.142;9.118;2022-08-21T05:44:03;5.07;;;2.90;;
49061;SDS011;34873;49.142;9.118;2022-08-21T05:46:29;3.72;;;2.70;;
49061;SDS011;34873;49.142;9.118;2022-08-21T05:48:54;4.70;;;2.63;;
49061;SDS011;34873;49.142;9.118;2022-08-21T05:51:22;6.00;;;3.00;;
49061;SDS011;34873;49.142;9.118;2022-08-21T05:53:50;4.63;;;2.78;;
49061;SDS011;34873;49.142;9.118;2022-08-21T05:56:16;4.53;;;2.83;;
49061;SDS011;34873;49.142;9.118;2022-08-21T05:58:46;8.70;;;3.28;;
49061;SDS011;34873;49.142;9.118;2022-08-21T06:01:17;3.40;;;3.10;;
49061;SDS011;34873;49.142;9.118;2022-08-21T06:03:42;3.78;;;3.22;;
49061;SDS011;34873;49.142;9.118;2022-08-21T06:06:08;6.10;;;2.67;;
49061;SDS011;34873;49.142;9.118;2022-08-21T06:08:36;3.33;;;2.70;;
49061;SDS011;34873;49.142;9.118;2022-08-21T06:11:02;3.75;;;2.85;;
49061;SDS011;34873;49.142;9.118;2022-08-21T06:13:29;4.65;;;2.90;;
49061;SDS011;34873;49.142;9.118;2022-08-21T06:16:04;5.75;;;3.30;;
49061;SDS011;34873;49.142;9.118;2022-08-21T06:18:31;5.53;;;3.28;;
49061;SDS011;34873;49.142;9.118;2022-08-21T06:20:57;5.03;;;3.20;;
49061;SDS011;34873;49.142;9.118;2022-08-21T06:23:23;3.47;;;2.47;;
49061;SDS011;34873;49.142;9.118;2022-08-21T06:25:48;6.68;;;3.17;;
49061;SDS011;34873;49.142;9.118;2022-08-21T06:28:14;5.40;;;3.15;;
49061;SDS011;34873;49.142;9.118;2022-08-21T06:30:39;3.75;;;3.25;;
49061;SDS011;34873;49.142;9.118;2022-08-21T06:33:07;5.20;;;3.42;;
49061;SDS011;34873;49.142;9.118;2022-08-21T06:35:33;5.35;;;3.03;;
49061;SDS011;34873;49.142;9.118;2022-08-21T06:38:01;3.83;;;2.53;;
49061;SDS011;34873;49.142;9.118;2022-08-21T06:40:29;6.10;;;2.97;;
49061;SDS011;34873;49.142;9.118;2022-08-21T06:43:10;7.40;;;2.83;;
49061;SDS011;34873;49.142;9.118;2022-08-21T06:45:40;3.35;;;2.88;;
49061;SDS011;34873;49.142;9.118;2022-08-21T06:48:08;4.38;;;2.88;;
49061;SDS011;34873;49.142;9.118;2022-08-21T06:50:33;9.25;;;3.60;;
49061;SDS011;34873;49.142;9.118;2022-08-21T06:53:04;5.10;;;2.90;;
49061;SDS011;34873;49.142;9.118;2022-08-21T06:55:31;5.10;;;2.80;;
49061;SDS011;34873;49.142;9.118;2022-08-21T06:58:00;6.53;;;2.83;;
49061;SDS011;34873;49.142;9.118;2022-08-21T07:00:26;5.82;;;3.20;;
49061;SDS011;34873;49.142;9.118;2022-08-21T07:02:53;10.32;;;3.13;;
49061;SDS011;34873;49.142;9.118;2022-08-21T07:05:21;5.07;;;2.78;;
49061;SDS011;34873;49.142;9.118;2022-08-21T07:07:47;6.05;;;2.78;;
49061;SDS011;34873;49.142;9.118;2022-08-21T07:10:15;12.05;;;3.30;;
49061;SDS011;34873;49.142;9.118;2022-08-21T07:12:41;5.40;;;2.58;;
49061;SDS011;34873;49.142;9.118;2022-08-21T07:15:09;9.30;;;3.17;;
49061;SDS011;34873;49.142;9.118;2022-08-21T07:17:37;10.55;;;3.30;;
49061;SDS011;34873;49.142;9.118;2022-08-21T07:20:03;9.05;;;3.17;;
49061;SDS011;34873;49.142;9.118;2022-08-21T07:22:31;11.98;;;3.20;;
49061;SDS011;34873;49.142;9.118;2022-08-21T07:24:59;6.50;;;3.10;;
49061;SDS011;34873;49.142;9.118;2022-08-21T07:27:30;10.55;;;3.00;;
49061;SDS011;34873;49.142;9.118;2022-08-21T07:29:56;10.38;;;3.78;;
49061;SDS011;34873;49.142;9.118;2022-08-21T07:32:25;11.38;;;3.20;;
49061;SDS011;34873;49.142;9.118;2022-08-21T07:34:50;6.97;;;2.90;;
49061;SDS011;34873;49.142;9.118;2022-08-21T07:37:16;8.75;;;3.28;;
49061;SDS011;34873;49.142;9.118;2022-08-21T07:39:41;7.00;;;3.33;;
49061;SDS011;34873;49.142;9.118;2022-08-21T07:42:07;6.93;;;3.42;;
49061;SDS011;34873;49.142;9.118;2022-08-21T07:44:33;6.25;;;2.80;;
49061;SDS011;34873;49.142;9.118;2022-08-21T07:46:59;7.25;;;2.85;;
49061;SDS011;34873;49.142;9.118;2022-08-21T07:49:27;5.43;;;2.53;;
49061;SDS011;34873;49.142;9.118;2022-08-21T07:51:55;5.00;;;2.00;;
49061;SDS011;34873;49.142;9.118;2022-08-21T07:54:21;6.82;;;2.00;;
49061;SDS011;34873;49.142;9.118;2022-08-21T07:56:49;2.92;;;1.60;;
49061;SDS011;34873;49.142;9.118;2022-08-21T07:59:17;5.10;;;2.45;;
49061;SDS011;34873;49.142;9.118;2022-08-21T08:01:45;2.22;;;1.60;;
49061;SDS011;34873;49.142;9.118;2022-08-21T08:04:13;2.45;;;1.33;;
49061;SDS011;34873;49.142;9.118;2022-08-21T08:06:40;4.05;;;2.03;;
49061;SDS011;34873;49.142;9.118;2022-08-21T08:09:08;4.50;;;1.17;;
49061;SDS011;34873;49.142;9.118;2022-08-21T08:11:34;1.83;;;1.20;;
49061;SDS011;34873;49.142;9.118;2022-08-21T08:14:03;3.67;;;1.02;;
49061;SDS011;34873;49.142;9.118;2022-08-21T08:16:33;2.13;;;1.08;;
49061;SDS011;34873;49.142;9.118;2022-08-21T08:19:05;2.37;;;0.80;;
49061;SDS011;34873;49.142;9.118;2022-08-21T08:21:35;2.20;;;0.77;;
49061;SDS011;34873;49.142;9.118;2022-08-21T08:24:02;1.25;;;0.70;;
49061;SDS011;34873;49.142;9.118;2022-08-21T08:26:30;1.15;;;0.70;;
49061;SDS011;34873;49.142;9.118;2022-08-21T08:28:58;1.27;;;0.73;;
49061;SDS011;34873;49.142;9.118;2022-08-21T08:31:25;2.70;;;0.65;;
49061;SDS011;34873;49.142;9.118;2022-08-21T08:33:53;0.90;;;0.85;;
49061;SDS011;34873;49.142;9.118;2022-08-21T08:36:31;2.15;;;0.57;;
49061;SDS011;34873;49.142;9.118;2022-08-21T08:39:03;1.05;;;0.75;;
49061;SDS011;34873;49.142;9.118;2022-08-21T08:41:31;2.00;;;0.60;;
49061;SDS011;34873;49.142;9.118;2022-08-21T08:43:58;0.93;;;0.60;;
49061;SDS011;34873;49.142;9.118;2022-08-21T08:46:29;3.17;;;0.60;;
49061;SDS011;34873;49.142;9.118;2022-08-21T08:49:07;1.13;;;0.60;;
49061;SDS011;34873;49.142;9.118;2022-08-21T08:51:44;0.55;;;0.38;;
49061;SDS011;34873;49.142;9.118;2022-08-21T08:54:36;2.53;;;0.50;;
49061;SDS011;34873;49.142;9.118;2022-08-21T08:57:02;0.70;;;0.35;;
49061;SDS011;34873;49.142;9.118;2022-08-21T08:59:50;0.70;;;0.60;;
49061;SDS011;34873;49.142;9.118;2022-08-21T09:02:18;0.30;;;0.30;;
49061;SDS011;34873;49.142;9.118;2022-08-21T09:04:47;0.45;;;0.22;;
49061;SDS011;34873;49.142;9.118;2022-08-21T09:10:10;0.25;;;0.20;;
49061;SDS011;34873;49.142;9.118;2022-08-21T09:21:02;0.65;;;0.10;;
49061;SDS011;34873;49.142;9.118;2022-08-21T09:26:13;0.10;;;0.10;;
49061;SDS011;34873;49.142;9.118;2022-08-21T09:28:43;0.13;;;0.13;;
49061;SDS011;34873;49.142;9.118;2022-08-21T09:31:26;0.40;;;0.32;;
49061;SDS011;34873;49.142;9.118;2022-08-21T09:34:07;0.30;;;0.10;;
49061;SDS011;34873;49.142;9.118;2022-08-21T09:36:41;0.35;;;0.10;;
49061;SDS011;34873;49.142;9.118;2022-08-21T09:41:35;0.10;;;0.10;;
49061;SDS011;34873;49.142;9.118;2022-08-21T09:44:06;0.10;;;0.10;;
49061;SDS011;34873;49.142;9.118;2022-08-21T09:46:33;1.45;;;0.00;;
49061;SDS011;34873;49.142;9.118;2022-08-21T09:49:02;0.10;;;0.10;;
49061;SDS011;34873;49.142;9.118;2022-08-21T09:51:32;0.00;;;0.00;;
49061;SDS011;34873;49.142;9.118;2022-08-21T09:56:51;1.65;;;0.93;;
49061;SDS011;34873;49.142;9.118;2022-08-21T09:59:39;1.33;;;1.20;;
49061;SDS011;34873;49.142;9.118;2022-08-21T10:04:50;2.83;;;1.40;;
49061;SDS011;34873;49.142;9.118;2022-08-21T10:07:27;3.15;;;1.42;;
49061;SDS011;34873;49.142;9.118;2022-08-21T10:12:49;3.65;;;1.60;;
49061;SDS011;34873;49.142;9.118;2022-08-21T10:26:01;2.70;;;1.48;;
49061;SDS011;34873;49.142;9.118;2022-08-21T10:28:31;2.20;;;1.50;;
49061;SDS011;34873;49.142;9.118;2022-08-21T10:31:14;2.22;;;1.50;;
49061;SDS011;34873;49.142;9.118;2022-08-21T10:33:51;2.55;;;1.52;;
49061;SDS011;34873;49.142;9.118;2022-08-21T10:36:19;3.38;;;1.73;;
49061;SDS011;34873;49.142;9.118;2022-08-21T10:39:22;2.45;;;1.60;;
49061;SDS011;34873;49.142;9.118;2022-08-21T10:44:48;4.10;;;1.63;;
49061;SDS011;34873;49.142;9.118;2022-08-21T10:47:50;2.72;;;1.50;;
49061;SDS011;34873;49.142;9.118;2022-08-21T10:50:30;1.50;;;1.30;;
49061;SDS011;34873;49.142;9.118;2022-08-21T10:55:43;1.75;;;1.38;;
49061;SDS011;34873;49.142;9.118;2022-08-21T10:58:25;3.10;;;1.25;;
49061;SDS011;34873;49.142;9.118;2022-08-21T11:01:04;2.35;;;1.25;;
49061;SDS011;34873;49.142;9.118;2022-08-21T11:03:41;3.10;;;1.30;;
49061;SDS011;34873;49.142;9.118;2022-08-21T11:06:11;2.80;;;1.30;;
49061;SDS011;34873;49.142;9.118;2022-08-21T11:08:39;3.08;;;1.50;;
49061;SDS011;34873;49.142;9.118;2022-08-21T11:11:12;2.92;;;1.83;;
49061;SDS011;34873;49.142;9.118;2022-08-21T11:13:52;2.88;;;1.10;;
49061;SDS011;34873;49.142;9.118;2022-08-21T11:16:41;2.50;;;1.45;;
49061;SDS011;34873;49.142;9.118;2022-08-21T11:19:17;1.45;;;1.35;;
49061;SDS011;34873;49.142;9.118;2022-08-21T11:21:49;2.17;;;1.48;;
49061;SDS011;34873;49.142;9.118;2022-08-21T11:27:08;2.95;;;1.42;;
49061;SDS011;34873;49.142;9.118;2022-08-21T11:29:40;2.63;;;1.60;;
49061;SDS011;34873;49.142;9.118;2022-08-21T11:34:57;2.38;;;1.30;;
49061;SDS011;34873;49.142;9.118;2022-08-21T11:37:48;3.70;;;2.15;;
49061;SDS011;34873;49.142;9.118;2022-08-21T11:43:17;1.67;;;1.38;;
49061;SDS011;34873;49.142;9.118;2022-08-21T11:45:56;2.97;;;1.50;;
49061;SDS011;34873;49.142;9.118;2022-08-21T11:49:11;3.17;;;1.80;;
49061;SDS011;34873;49.142;9.118;2022-08-21T11:51:46;1.95;;;1.60;;
49061;SDS011;34873;49.142;9.118;2022-08-21T11:57:00;2.33;;;1.50;;
49061;SDS011;34873;49.142;9.118;2022-08-21T11:59:35;2.53;;;1.65;;
49061;SDS011;34873;49.142;9.118;2022-08-21T12:02:45;5.35;;;1.50;;
